< < Back
Terminal Aerodrome Forecast


Current Version              Previous Versions:   1  2  3  4  5  6  7  8  9  

Terminal Aerodrome Forecast

771
FTUS42 KMLB 011000 AAB
TAFDAB
TAF AMD
KDAB 011016Z 0110/0206 00000KT P6SM FEW020 FEW060
     FM011400 03006KT P6SM VCSH FEW010 BKN060
     FM012300 04004KT P6SM FEW025 SCT100 SCT250=



Latest METAR

389
SAUS80 KWBC 011400 RRG
MTRDAB
METAR KDAB 011353Z 08007KT 10SM FEW015 SCT055 SCT150 27/23 A2995 RMK AO2
SLP140 T02670228


USA.gov is the U.S. government's official web portal to all federal, state and local government web resources and services.